sensor_id;sensor_type;location;lat;lon;timestamp;P1;durP1;ratioP1;P2;durP2;ratioP2
45328;SDS011;72636;48.160;11.428;2024-03-23T00:53:28;6.70;;;2.90;;
45328;SDS011;72636;48.160;11.428;2024-03-23T00:55:54;3.42;;;2.30;;
45328;SDS011;72636;48.160;11.428;2024-03-23T00:58:20;8.43;;;2.77;;
45328;SDS011;72636;48.160;11.428;2024-03-23T01:00:46;8.10;;;3.27;;
45328;SDS011;72636;48.160;11.428;2024-03-23T01:03:12;5.03;;;3.03;;
45328;SDS011;72636;48.160;11.428;2024-03-23T01:05:37;3.47;;;2.43;;
45328;SDS011;72636;48.160;11.428;2024-03-23T01:08:03;5.50;;;2.93;;
45328;SDS011;72636;48.160;11.428;2024-03-23T01:10:29;6.22;;;2.38;;
45328;SDS011;72636;48.160;11.428;2024-03-23T01:12:55;5.03;;;2.28;;
45328;SDS011;72636;48.160;11.428;2024-03-23T01:15:21;8.17;;;2.87;;
45328;SDS011;72636;48.160;11.428;2024-03-23T01:17:47;5.60;;;2.50;;
45328;SDS011;72636;48.160;11.428;2024-03-23T01:20:12;4.43;;;2.50;;
45328;SDS011;72636;48.160;11.428;2024-03-23T01:22:39;2.92;;;2.28;;
45328;SDS011;72636;48.160;11.428;2024-03-23T01:25:05;5.97;;;2.83;;
45328;SDS011;72636;48.160;11.428;2024-03-23T01:27:31;7.30;;;2.53;;
45328;SDS011;72636;48.160;11.428;2024-03-23T01:29:56;4.53;;;2.85;;
45328;SDS011;72636;48.160;11.428;2024-03-23T01:32:22;9.87;;;3.83;;
45328;SDS011;72636;48.160;11.428;2024-03-23T01:34:48;7.10;;;3.70;;
45328;SDS011;72636;48.160;11.428;2024-03-23T01:37:14;7.75;;;3.45;;
45328;SDS011;72636;48.160;11.428;2024-03-23T01:39:39;7.50;;;3.23;;
45328;SDS011;72636;48.160;11.428;2024-03-23T01:42:05;6.93;;;2.78;;
45328;SDS011;72636;48.160;11.428;2024-03-23T01:44:31;7.13;;;3.37;;
45328;SDS011;72636;48.160;11.428;2024-03-23T01:46:57;5.03;;;2.77;;
45328;SDS011;72636;48.160;11.428;2024-03-23T01:49:22;5.40;;;2.97;;
45328;SDS011;72636;48.160;11.428;2024-03-23T01:51:48;5.75;;;3.13;;
45328;SDS011;72636;48.160;11.428;2024-03-23T01:54:15;5.00;;;2.58;;
45328;SDS011;72636;48.160;11.428;2024-03-23T01:56:41;5.40;;;2.55;;
45328;SDS011;72636;48.160;11.428;2024-03-23T01:59:06;4.27;;;2.70;;
45328;SDS011;72636;48.160;11.428;2024-03-23T02:01:32;4.57;;;2.73;;
45328;SDS011;72636;48.160;11.428;2024-03-23T02:04:01;6.10;;;2.30;;
45328;SDS011;72636;48.160;11.428;2024-03-23T02:06:27;3.70;;;2.15;;
45328;SDS011;72636;48.160;11.428;2024-03-23T02:08:54;3.03;;;2.13;;
45328;SDS011;72636;48.160;11.428;2024-03-23T02:11:20;3.15;;;2.10;;
45328;SDS011;72636;48.160;11.428;2024-03-23T02:13:46;2.65;;;2.10;;
45328;SDS011;72636;48.160;11.428;2024-03-23T02:16:11;3.47;;;1.97;;
45328;SDS011;72636;48.160;11.428;2024-03-23T02:21:04;3.33;;;1.98;;
45328;SDS011;72636;48.160;11.428;2024-03-23T02:23:30;3.78;;;2.10;;
45328;SDS011;72636;48.160;11.428;2024-03-23T02:25:55;5.32;;;2.85;;
45328;SDS011;72636;48.160;11.428;2024-03-23T02:28:21;4.47;;;2.20;;
45328;SDS011;72636;48.160;11.428;2024-03-23T02:30:51;2.22;;;2.00;;
45328;SDS011;72636;48.160;11.428;2024-03-23T02:33:17;3.63;;;2.30;;
45328;SDS011;72636;48.160;11.428;2024-03-23T02:35:43;4.22;;;2.42;;
45328;SDS011;72636;48.160;11.428;2024-03-23T02:38:10;4.07;;;2.30;;
45328;SDS011;72636;48.160;11.428;2024-03-23T02:40:35;2.83;;;2.15;;
45328;SDS011;72636;48.160;11.428;2024-03-23T02:43:04;4.85;;;2.08;;
45328;SDS011;72636;48.160;11.428;2024-03-23T02:45:30;4.22;;;2.38;;
45328;SDS011;72636;48.160;11.428;2024-03-23T02:47:56;4.47;;;2.05;;
45328;SDS011;72636;48.160;11.428;2024-03-23T02:50:22;4.55;;;2.20;;
45328;SDS011;72636;48.160;11.428;2024-03-23T02:52:48;4.32;;;2.22;;
45328;SDS011;72636;48.160;11.428;2024-03-23T02:55:14;3.47;;;2.10;;
45328;SDS011;72636;48.160;11.428;2024-03-23T02:57:40;2.78;;;2.17;;
45328;SDS011;72636;48.160;11.428;2024-03-23T03:00:06;3.70;;;1.92;;
45328;SDS011;72636;48.160;11.428;2024-03-23T03:02:33;2.30;;;2.00;;
45328;SDS011;72636;48.160;11.428;2024-03-23T03:04:58;3.35;;;1.83;;
45328;SDS011;72636;48.160;11.428;2024-03-23T03:07:24;4.13;;;2.00;;
45328;SDS011;72636;48.160;11.428;2024-03-23T03:09:50;4.80;;;1.98;;
45328;SDS011;72636;48.160;11.428;2024-03-23T03:12:16;2.07;;;1.83;;
45328;SDS011;72636;48.160;11.428;2024-03-23T03:14:42;3.17;;;1.73;;
45328;SDS011;72636;48.160;11.428;2024-03-23T03:17:07;3.93;;;1.80;;
45328;SDS011;72636;48.160;11.428;2024-03-23T03:19:33;5.53;;;2.33;;
45328;SDS011;72636;48.160;11.428;2024-03-23T03:21:59;4.97;;;2.03;;
45328;SDS011;72636;48.160;11.428;2024-03-23T03:24:25;3.65;;;1.83;;
45328;SDS011;72636;48.160;11.428;2024-03-23T03:26:51;3.27;;;1.77;;
45328;SDS011;72636;48.160;11.428;2024-03-23T03:29:16;4.68;;;1.80;;
45328;SDS011;72636;48.160;11.428;2024-03-23T03:31:42;4.57;;;2.20;;
45328;SDS011;72636;48.160;11.428;2024-03-23T03:34:08;3.08;;;1.90;;
45328;SDS011;72636;48.160;11.428;2024-03-23T03:36:34;4.97;;;2.00;;
45328;SDS011;72636;48.160;11.428;2024-03-23T03:39:00;2.35;;;1.75;;
45328;SDS011;72636;48.160;11.428;2024-03-23T03:41:28;2.83;;;1.83;;
45328;SDS011;72636;48.160;11.428;2024-03-23T03:43:54;5.10;;;1.98;;
45328;SDS011;72636;48.160;11.428;2024-03-23T03:46:20;2.70;;;2.00;;
45328;SDS011;72636;48.160;11.428;2024-03-23T03:48:46;2.67;;;2.10;;
45328;SDS011;72636;48.160;11.428;2024-03-23T03:51:13;3.50;;;2.03;;
45328;SDS011;72636;48.160;11.428;2024-03-23T03:53:39;4.20;;;2.00;;
45328;SDS011;72636;48.160;11.428;2024-03-23T03:56:05;2.40;;;1.90;;
45328;SDS011;72636;48.160;11.428;2024-03-23T03:58:30;2.38;;;1.70;;
45328;SDS011;72636;48.160;11.428;2024-03-23T04:00:56;5.03;;;1.93;;
45328;SDS011;72636;48.160;11.428;2024-03-23T04:03:22;6.17;;;1.93;;
45328;SDS011;72636;48.160;11.428;2024-03-23T04:05:53;3.53;;;1.77;;
45328;SDS011;72636;48.160;11.428;2024-03-23T04:08:20;3.25;;;1.77;;
45328;SDS011;72636;48.160;11.428;2024-03-23T04:10:46;3.00;;;1.73;;
45328;SDS011;72636;48.160;11.428;2024-03-23T04:13:12;4.25;;;2.17;;
45328;SDS011;72636;48.160;11.428;2024-03-23T04:15:38;3.83;;;2.15;;
45328;SDS011;72636;48.160;11.428;2024-03-23T04:18:04;9.02;;;2.17;;
45328;SDS011;72636;48.160;11.428;2024-03-23T04:20:30;4.43;;;1.63;;
45328;SDS011;72636;48.160;11.428;2024-03-23T04:22:57;3.40;;;2.05;;
45328;SDS011;72636;48.160;11.428;2024-03-23T04:25:23;3.72;;;2.00;;
45328;SDS011;72636;48.160;11.428;2024-03-23T04:27:49;2.30;;;1.80;;
45328;SDS011;72636;48.160;11.428;2024-03-23T04:30:15;4.22;;;1.95;;
45328;SDS011;72636;48.160;11.428;2024-03-23T04:32:41;3.30;;;1.85;;
45328;SDS011;72636;48.160;11.428;2024-03-23T04:35:07;4.13;;;2.20;;
45328;SDS011;72636;48.160;11.428;2024-03-23T04:37:36;5.18;;;1.83;;
45328;SDS011;72636;48.160;11.428;2024-03-23T04:40:02;5.32;;;2.05;;
45328;SDS011;72636;48.160;11.428;2024-03-23T04:42:28;3.05;;;2.17;;
45328;SDS011;72636;48.160;11.428;2024-03-23T04:44:54;2.40;;;1.95;;
45328;SDS011;72636;48.160;11.428;2024-03-23T04:47:20;4.33;;;1.80;;
45328;SDS011;72636;48.160;11.428;2024-03-23T04:49:46;4.03;;;2.10;;
45328;SDS011;72636;48.160;11.428;2024-03-23T04:52:11;5.00;;;2.28;;
45328;SDS011;72636;48.160;11.428;2024-03-23T04:54:37;3.72;;;2.00;;
45328;SDS011;72636;48.160;11.428;2024-03-23T04:57:05;3.83;;;1.60;;
45328;SDS011;72636;48.160;11.428;2024-03-23T04:59:31;3.80;;;1.90;;
45328;SDS011;72636;48.160;11.428;2024-03-23T05:01:57;5.10;;;1.90;;
45328;SDS011;72636;48.160;11.428;2024-03-23T05:04:23;5.63;;;2.43;;
45328;SDS011;72636;48.160;11.428;2024-03-23T05:06:48;4.17;;;1.93;;
45328;SDS011;72636;48.160;11.428;2024-03-23T05:09:14;4.67;;;2.23;;
45328;SDS011;72636;48.160;11.428;2024-03-23T05:11:40;2.23;;;1.80;;
45328;SDS011;72636;48.160;11.428;2024-03-23T05:14:09;5.93;;;2.13;;
45328;SDS011;72636;48.160;11.428;2024-03-23T05:16:36;3.85;;;2.30;;
45328;SDS011;72636;48.160;11.428;2024-03-23T05:19:03;4.93;;;2.15;;
45328;SDS011;72636;48.160;11.428;2024-03-23T05:21:29;4.10;;;2.00;;
45328;SDS011;72636;48.160;11.428;2024-03-23T05:23:54;5.60;;;2.33;;
45328;SDS011;72636;48.160;11.428;2024-03-23T05:26:21;4.57;;;2.00;;
45328;SDS011;72636;48.160;11.428;2024-03-23T05:28:48;5.10;;;1.98;;
45328;SDS011;72636;48.160;11.428;2024-03-23T05:31:22;3.90;;;1.92;;
45328;SDS011;72636;48.160;11.428;2024-03-23T05:33:49;3.30;;;1.92;;
45328;SDS011;72636;48.160;11.428;2024-03-23T05:36:14;4.18;;;2.25;;
45328;SDS011;72636;48.160;11.428;2024-03-23T05:38:40;3.33;;;1.73;;
45328;SDS011;72636;48.160;11.428;2024-03-23T05:41:06;2.75;;;1.77;;
45328;SDS011;72636;48.160;11.428;2024-03-23T05:43:32;2.67;;;1.20;;
45328;SDS011;72636;48.160;11.428;2024-03-23T05:45:58;3.77;;;1.50;;
45328;SDS011;72636;48.160;11.428;2024-03-23T05:48:25;2.40;;;1.65;;
45328;SDS011;72636;48.160;11.428;2024-03-23T05:50:52;2.75;;;1.80;;
45328;SDS011;72636;48.160;11.428;2024-03-23T05:53:18;4.00;;;1.90;;
45328;SDS011;72636;48.160;11.428;2024-03-23T05:55:46;3.83;;;2.00;;
45328;SDS011;72636;48.160;11.428;2024-03-23T05:58:14;3.72;;;1.83;;
45328;SDS011;72636;48.160;11.428;2024-03-23T06:00:40;2.45;;;1.60;;
45328;SDS011;72636;48.160;11.428;2024-03-23T06:03:07;4.45;;;1.90;;
45328;SDS011;72636;48.160;11.428;2024-03-23T06:05:33;4.57;;;1.80;;
45328;SDS011;72636;48.160;11.428;2024-03-23T06:07:59;7.00;;;2.00;;
45328;SDS011;72636;48.160;11.428;2024-03-23T06:10:25;7.75;;;2.15;;
45328;SDS011;72636;48.160;11.428;2024-03-23T06:12:50;3.20;;;1.57;;
45328;SDS011;72636;48.160;11.428;2024-03-23T06:15:20;2.78;;;1.70;;
45328;SDS011;72636;48.160;11.428;2024-03-23T06:17:47;6.43;;;1.50;;
45328;SDS011;72636;48.160;11.428;2024-03-23T06:20:13;4.00;;;1.60;;
45328;SDS011;72636;48.160;11.428;2024-03-23T06:22:39;2.42;;;1.60;;
45328;SDS011;72636;48.160;11.428;2024-03-23T06:25:05;2.30;;;1.52;;
45328;SDS011;72636;48.160;11.428;2024-03-23T06:27:32;3.50;;;1.60;;
45328;SDS011;72636;48.160;11.428;2024-03-23T06:29:58;3.17;;;1.55;;
45328;SDS011;72636;48.160;11.428;2024-03-23T06:32:24;2.55;;;1.40;;
45328;SDS011;72636;48.160;11.428;2024-03-23T06:34:50;2.23;;;1.27;;
45328;SDS011;72636;48.160;11.428;2024-03-23T06:37:16;6.10;;;1.60;;
45328;SDS011;72636;48.160;11.428;2024-03-23T06:39:41;4.37;;;2.20;;
45328;SDS011;72636;48.160;11.428;2024-03-23T06:42:07;2.63;;;1.80;;
45328;SDS011;72636;48.160;11.428;2024-03-23T06:44:33;4.95;;;1.67;;
45328;SDS011;72636;48.160;11.428;2024-03-23T06:46:59;4.40;;;1.85;;
45328;SDS011;72636;48.160;11.428;2024-03-23T06:49:25;4.17;;;1.30;;
45328;SDS011;72636;48.160;11.428;2024-03-23T06:51:51;7.07;;;1.53;;
45328;SDS011;72636;48.160;11.428;2024-03-23T06:54:17;5.28;;;1.60;;
45328;SDS011;72636;48.160;11.428;2024-03-23T06:56:44;4.10;;;1.10;;
45328;SDS011;72636;48.160;11.428;2024-03-23T06:59:10;4.18;;;1.55;;
45328;SDS011;72636;48.160;11.428;2024-03-23T07:01:36;2.90;;;1.33;;
45328;SDS011;72636;48.160;11.428;2024-03-23T07:04:02;2.65;;;1.73;;
45328;SDS011;72636;48.160;11.428;2024-03-23T07:06:29;4.22;;;1.40;;
45328;SDS011;72636;48.160;11.428;2024-03-23T07:08:55;5.00;;;1.75;;
45328;SDS011;72636;48.160;11.428;2024-03-23T07:11:21;6.35;;;1.90;;
45328;SDS011;72636;48.160;11.428;2024-03-23T07:16:17;3.55;;;2.00;;
45328;SDS011;72636;48.160;11.428;2024-03-23T07:18:43;5.85;;;1.70;;
45328;SDS011;72636;48.160;11.428;2024-03-23T07:21:09;3.05;;;1.60;;
45328;SDS011;72636;48.160;11.428;2024-03-23T07:23:35;2.83;;;1.77;;
45328;SDS011;72636;48.160;11.428;2024-03-23T07:26:04;3.67;;;1.77;;
45328;SDS011;72636;48.160;11.428;2024-03-23T07:28:31;3.80;;;1.70;;
45328;SDS011;72636;48.160;11.428;2024-03-23T07:31:05;3.63;;;1.88;;
45328;SDS011;72636;48.160;11.428;2024-03-23T07:33:31;3.97;;;2.22;;
45328;SDS011;72636;48.160;11.428;2024-03-23T07:35:57;4.10;;;2.20;;
45328;SDS011;72636;48.160;11.428;2024-03-23T07:38:25;6.63;;;2.10;;
45328;SDS011;72636;48.160;11.428;2024-03-23T07:40:52;3.80;;;2.15;;
45328;SDS011;72636;48.160;11.428;2024-03-23T07:43:21;5.40;;;2.20;;
45328;SDS011;72636;48.160;11.428;2024-03-23T07:45:53;4.15;;;2.10;;
45328;SDS011;72636;48.160;11.428;2024-03-23T07:48:20;4.85;;;2.30;;
45328;SDS011;72636;48.160;11.428;2024-03-23T07:53:48;5.45;;;2.17;;
45328;SDS011;72636;48.160;11.428;2024-03-23T07:56:14;6.32;;;2.50;;
45328;SDS011;72636;48.160;11.428;2024-03-23T07:58:41;5.93;;;2.50;;
45328;SDS011;72636;48.160;11.428;2024-03-23T08:01:16;3.13;;;2.47;;
45328;SDS011;72636;48.160;11.428;2024-03-23T08:03:43;5.00;;;2.35;;
45328;SDS011;72636;48.160;11.428;2024-03-23T08:08:40;7.75;;;2.83;;
45328;SDS011;72636;48.160;11.428;2024-03-23T08:11:07;5.07;;;2.25;;
45328;SDS011;72636;48.160;11.428;2024-03-23T08:13:33;3.83;;;2.47;;
45328;SDS011;72636;48.160;11.428;2024-03-23T08:16:00;4.22;;;2.42;;
45328;SDS011;72636;48.160;11.428;2024-03-23T08:18:27;3.80;;;2.58;;
45328;SDS011;72636;48.160;11.428;2024-03-23T08:20:59;4.88;;;2.50;;
45328;SDS011;72636;48.160;11.428;2024-03-23T08:23:30;3.75;;;2.85;;
45328;SDS011;72636;48.160;11.428;2024-03-23T08:26:02;5.57;;;2.92;;
45328;SDS011;72636;48.160;11.428;2024-03-23T08:28:40;2.90;;;1.90;;
45328;SDS011;72636;48.160;11.428;2024-03-23T08:31:07;4.28;;;2.28;;
45328;SDS011;72636;48.160;11.428;2024-03-23T08:33:34;4.13;;;2.10;;
45328;SDS011;72636;48.160;11.428;2024-03-23T08:36:01;3.80;;;2.10;;
45328;SDS011;72636;48.160;11.428;2024-03-23T08:38:28;4.68;;;2.58;;
45328;SDS011;72636;48.160;11.428;2024-03-23T08:43:29;4.78;;;2.65;;
45328;SDS011;72636;48.160;11.428;2024-03-23T08:48:38;2.40;;;2.20;;
45328;SDS011;72636;48.160;11.428;2024-03-23T08:51:06;2.83;;;2.30;;
45328;SDS011;72636;48.160;11.428;2024-03-23T08:53:33;3.08;;;2.42;;
45328;SDS011;72636;48.160;11.428;2024-03-23T08:56:00;4.18;;;2.38;;
45328;SDS011;72636;48.160;11.428;2024-03-23T08:58:28;2.47;;;2.28;;
45328;SDS011;72636;48.160;11.428;2024-03-23T09:00:55;3.10;;;2.60;;
45328;SDS011;72636;48.160;11.428;2024-03-23T09:03:22;4.07;;;2.75;;
45328;SDS011;72636;48.160;11.428;2024-03-23T09:05:49;4.80;;;2.88;;
45328;SDS011;72636;48.160;11.428;2024-03-23T09:08:14;5.00;;;3.20;;
45328;SDS011;72636;48.160;11.428;2024-03-23T09:10:40;4.00;;;3.08;;
45328;SDS011;72636;48.160;11.428;2024-03-23T09:13:07;5.75;;;3.20;;
45328;SDS011;72636;48.160;11.428;2024-03-23T09:15:37;5.45;;;4.00;;
45328;SDS011;72636;48.160;11.428;2024-03-23T09:18:10;4.00;;;3.08;;
45328;SDS011;72636;48.160;11.428;2024-03-23T09:20:36;6.35;;;3.33;;
45328;SDS011;72636;48.160;11.428;2024-03-23T09:23:01;4.30;;;3.13;;
45328;SDS011;72636;48.160;11.428;2024-03-23T09:25:27;5.10;;;3.13;;
45328;SDS011;72636;48.160;11.428;2024-03-23T09:27:53;5.17;;;3.27;;
45328;SDS011;72636;48.160;11.428;2024-03-23T09:30:18;5.90;;;3.07;;
45328;SDS011;72636;48.160;11.428;2024-03-23T09:32:45;3.75;;;2.72;;
45328;SDS011;72636;48.160;11.428;2024-03-23T09:35:11;2.60;;;1.85;;
45328;SDS011;72636;48.160;11.428;2024-03-23T09:37:40;1.40;;;1.15;;
45328;SDS011;72636;48.160;11.428;2024-03-23T09:40:11;2.22;;;1.10;;
45328;SDS011;72636;48.160;11.428;2024-03-23T09:42:37;2.20;;;1.77;;
45328;SDS011;72636;48.160;11.428;2024-03-23T09:45:06;2.22;;;1.35;;
45328;SDS011;72636;48.160;11.428;2024-03-23T09:47:46;1.55;;;1.38;;
45328;SDS011;72636;48.160;11.428;2024-03-23T09:50:12;1.73;;;1.23;;
45328;SDS011;72636;48.160;11.428;2024-03-23T09:55:04;1.73;;;1.27;;
45328;SDS011;72636;48.160;11.428;2024-03-23T09:57:30;1.90;;;1.33;;
45328;SDS011;72636;48.160;11.428;2024-03-23T09:59:56;1.50;;;1.00;;
45328;SDS011;72636;48.160;11.428;2024-03-23T10:02:23;1.80;;;1.13;;
45328;SDS011;72636;48.160;11.428;2024-03-23T10:04:49;1.65;;;1.40;;
45328;SDS011;72636;48.160;11.428;2024-03-23T10:07:17;1.98;;;1.00;;
45328;SDS011;72636;48.160;11.428;2024-03-23T10:09:44;1.33;;;1.10;;
45328;SDS011;72636;48.160;11.428;2024-03-23T10:12:12;1.77;;;1.38;;
45328;SDS011;72636;48.160;11.428;2024-03-23T10:14:39;1.58;;;1.48;;
45328;SDS011;72636;48.160;11.428;2024-03-23T10:17:12;1.30;;;1.20;;
45328;SDS011;72636;48.160;11.428;2024-03-23T10:19:47;1.60;;;1.35;;
45328;SDS011;72636;48.160;11.428;2024-03-23T10:22:17;2.38;;;1.58;;
45328;SDS011;72636;48.160;11.428;2024-03-23T10:24:46;2.25;;;1.20;;
45328;SDS011;72636;48.160;11.428;2024-03-23T10:27:17;2.70;;;1.52;;
45328;SDS011;72636;48.160;11.428;2024-03-23T10:29:45;1.30;;;1.20;;
45328;SDS011;72636;48.160;11.428;2024-03-23T10:34:38;1.33;;;0.82;;
45328;SDS011;72636;48.160;11.428;2024-03-23T10:37:04;1.17;;;1.08;;
45328;SDS011;72636;48.160;11.428;2024-03-23T10:39:35;1.73;;;0.90;;
45328;SDS011;72636;48.160;11.428;2024-03-23T10:42:05;1.27;;;0.70;;
45328;SDS011;72636;48.160;11.428;2024-03-23T10:44:38;1.08;;;0.52;;
45328;SDS011;72636;48.160;11.428;2024-03-23T10:47:04;2.08;;;0.80;;
45328;SDS011;72636;48.160;11.428;2024-03-23T10:49:34;1.63;;;0.70;;
45328;SDS011;72636;48.160;11.428;2024-03-23T10:52:03;2.17;;;0.80;;
45328;SDS011;72636;48.160;11.428;2024-03-23T10:54:30;1.25;;;0.70;;
45328;SDS011;72636;48.160;11.428;2024-03-23T10:56:59;0.65;;;0.63;;
45328;SDS011;72636;48.160;11.428;2024-03-23T10:59:42;0.73;;;0.60;;
45328;SDS011;72636;48.160;11.428;2024-03-23T11:02:18;2.03;;;0.80;;
45328;SDS011;72636;48.160;11.428;2024-03-23T11:04:44;1.15;;;0.60;;
45328;SDS011;72636;48.160;11.428;2024-03-23T11:07:29;1.48;;;0.70;;
45328;SDS011;72636;48.160;11.428;2024-03-23T11:09:59;1.48;;;0.82;;
45328;SDS011;72636;48.160;11.428;2024-03-23T11:15:09;0.60;;;0.60;;
45328;SDS011;72636;48.160;11.428;2024-03-23T11:17:37;2.58;;;0.70;;
45328;SDS011;72636;48.160;11.428;2024-03-23T11:20:04;0.77;;;0.60;;
45328;SDS011;72636;48.160;11.428;2024-03-23T11:22:46;0.98;;;0.73;;
45328;SDS011;72636;48.160;11.428;2024-03-23T11:27:51;1.33;;;0.98;;
45328;SDS011;72636;48.160;11.428;2024-03-23T11:30:36;2.35;;;1.10;;
45328;SDS011;72636;48.160;11.428;2024-03-23T11:33:03;2.03;;;1.10;;
45328;SDS011;72636;48.160;11.428;2024-03-23T11:38:03;4.00;;;1.65;;
45328;SDS011;72636;48.160;11.428;2024-03-23T11:40:45;2.08;;;1.00;;
45328;SDS011;72636;48.160;11.428;2024-03-23T11:43:13;2.55;;;1.08;;
45328;SDS011;72636;48.160;11.428;2024-03-23T11:48:12;1.75;;;1.10;;
45328;SDS011;72636;48.160;11.428;2024-03-23T11:50:46;1.23;;;1.13;;
45328;SDS011;72636;48.160;11.428;2024-03-23T11:53:13;2.63;;;1.20;;
45328;SDS011;72636;48.160;11.428;2024-03-23T11:55:50;2.50;;;1.08;;
45328;SDS011;72636;48.160;11.428;2024-03-23T11:58:17;1.95;;;1.02;;
45328;SDS011;72636;48.160;11.428;2024-03-23T12:01:09;1.75;;;1.30;;
45328;SDS011;72636;48.160;11.428;2024-03-23T12:03:35;1.70;;;1.30;;
45328;SDS011;72636;48.160;11.428;2024-03-23T12:06:01;3.45;;;1.83;;
45328;SDS011;72636;48.160;11.428;2024-03-23T12:13:51;5.07;;;1.77;;
45328;SDS011;72636;48.160;11.428;2024-03-23T12:16:17;4.38;;;1.83;;
45328;SDS011;72636;48.160;11.428;2024-03-23T12:18:46;3.75;;;1.58;;
45328;SDS011;72636;48.160;11.428;2024-03-23T12:21:18;3.95;;;1.75;;
45328;SDS011;72636;48.160;11.428;2024-03-23T12:23:44;4.45;;;1.85;;
45328;SDS011;72636;48.160;11.428;2024-03-23T12:26:11;3.88;;;1.80;;
45328;SDS011;72636;48.160;11.428;2024-03-23T12:28:38;4.50;;;1.85;;
45328;SDS011;72636;48.160;11.428;2024-03-23T12:31:04;3.25;;;1.70;;
45328;SDS011;72636;48.160;11.428;2024-03-23T12:33:30;3.80;;;1.90;;
45328;SDS011;72636;48.160;11.428;2024-03-23T12:35:56;3.80;;;2.05;;
45328;SDS011;72636;48.160;11.428;2024-03-23T12:38:22;4.43;;;2.15;;
45328;SDS011;72636;48.160;11.428;2024-03-23T12:40:51;5.53;;;1.83;;
45328;SDS011;72636;48.160;11.428;2024-03-23T12:43:17;4.22;;;1.58;;
45328;SDS011;72636;48.160;11.428;2024-03-23T12:45:46;3.60;;;1.90;;
45328;SDS011;72636;48.160;11.428;2024-03-23T12:48:13;4.95;;;1.88;;
45328;SDS011;72636;48.160;11.428;2024-03-23T12:50:39;6.93;;;2.40;;
45328;SDS011;72636;48.160;11.428;2024-03-23T12:53:04;6.75;;;2.47;;
45328;SDS011;72636;48.160;11.428;2024-03-23T12:55:30;3.07;;;2.20;;
45328;SDS011;72636;48.160;11.428;2024-03-23T12:57:56;3.40;;;2.17;;
45328;SDS011;72636;48.160;11.428;2024-03-23T13:00:21;4.97;;;1.97;;
45328;SDS011;72636;48.160;11.428;2024-03-23T13:02:47;3.85;;;1.92;;
45328;SDS011;72636;48.160;11.428;2024-03-23T13:05:13;8.18;;;2.10;;
45328;SDS011;72636;48.160;11.428;2024-03-23T13:07:39;6.97;;;2.30;;
45328;SDS011;72636;48.160;11.428;2024-03-23T13:10:05;6.32;;;2.17;;
45328;SDS011;72636;48.160;11.428;2024-03-23T13:14:58;5.07;;;2.42;;
45328;SDS011;72636;48.160;11.428;2024-03-23T13:17:27;4.18;;;2.30;;
45328;SDS011;72636;48.160;11.428;2024-03-23T13:19:53;8.10;;;2.40;;
45328;SDS011;72636;48.160;11.428;2024-03-23T13:22:20;5.75;;;2.40;;
45328;SDS011;72636;48.160;11.428;2024-03-23T13:24:46;7.13;;;3.03;;
45328;SDS011;72636;48.160;11.428;2024-03-23T13:27:12;5.60;;;3.03;;
45328;SDS011;72636;48.160;11.428;2024-03-23T13:29:37;7.47;;;2.80;;
45328;SDS011;72636;48.160;11.428;2024-03-23T13:32:04;5.05;;;2.10;;
45328;SDS011;72636;48.160;11.428;2024-03-23T13:34:30;6.18;;;2.08;;
45328;SDS011;72636;48.160;11.428;2024-03-23T13:36:56;4.85;;;2.30;;
45328;SDS011;72636;48.160;11.428;2024-03-23T13:39:25;6.25;;;2.50;;
45328;SDS011;72636;48.160;11.428;2024-03-23T13:41:54;5.32;;;2.60;;
45328;SDS011;72636;48.160;11.428;2024-03-23T13:44:20;6.32;;;2.70;;
45328;SDS011;72636;48.160;11.428;2024-03-23T13:46:47;6.20;;;2.88;;
45328;SDS011;72636;48.160;11.428;2024-03-23T13:49:18;8.00;;;3.17;;
45328;SDS011;72636;48.160;11.428;2024-03-23T13:51:49;4.20;;;2.63;;
45328;SDS011;72636;48.160;11.428;2024-03-23T13:54:15;8.80;;;3.53;;
45328;SDS011;72636;48.160;11.428;2024-03-23T13:56:41;4.83;;;2.83;;
45328;SDS011;72636;48.160;11.428;2024-03-23T13:59:06;8.43;;;4.13;;
45328;SDS011;72636;48.160;11.428;2024-03-23T14:01:32;9.40;;;3.53;;
45328;SDS011;72636;48.160;11.428;2024-03-23T14:03:58;7.30;;;3.65;;
45328;SDS011;72636;48.160;11.428;2024-03-23T14:06:24;9.73;;;3.27;;
45328;SDS011;72636;48.160;11.428;2024-03-23T14:08:50;8.53;;;3.80;;
45328;SDS011;72636;48.160;11.428;2024-03-23T14:11:17;11.85;;;5.10;;
45328;SDS011;72636;48.160;11.428;2024-03-23T14:13:43;12.23;;;5.38;;
45328;SDS011;72636;48.160;11.428;2024-03-23T14:16:09;9.73;;;4.60;;
45328;SDS011;72636;48.160;11.428;2024-03-23T14:18:35;9.25;;;4.90;;
45328;SDS011;72636;48.160;11.428;2024-03-23T14:21:01;8.82;;;4.35;;
45328;SDS011;72636;48.160;11.428;2024-03-23T14:23:28;8.77;;;3.50;;
45328;SDS011;72636;48.160;11.428;2024-03-23T14:25:55;7.25;;;2.80;;
45328;SDS011;72636;48.160;11.428;2024-03-23T14:30:48;4.32;;;1.90;;
45328;SDS011;72636;48.160;11.428;2024-03-23T14:33:15;5.78;;;1.90;;
45328;SDS011;72636;48.160;11.428;2024-03-23T14:35:41;5.95;;;1.80;;
45328;SDS011;72636;48.160;11.428;2024-03-23T14:38:07;6.23;;;1.77;;
45328;SDS011;72636;48.160;11.428;2024-03-23T14:40:33;3.23;;;1.50;;
45328;SDS011;72636;48.160;11.428;2024-03-23T14:42:59;5.03;;;1.80;;
45328;SDS011;72636;48.160;11.428;2024-03-23T14:45:24;5.95;;;1.92;;
45328;SDS011;72636;48.160;11.428;2024-03-23T14:47:51;5.13;;;2.03;;
45328;SDS011;72636;48.160;11.428;2024-03-23T14:50:17;7.13;;;1.80;;
45328;SDS011;72636;48.160;11.428;2024-03-23T14:55:11;4.95;;;1.67;;
45328;SDS011;72636;48.160;11.428;2024-03-23T14:57:38;4.28;;;1.50;;
45328;SDS011;72636;48.160;11.428;2024-03-23T15:00:07;10.00;;;2.30;;
45328;SDS011;72636;48.160;11.428;2024-03-23T15:02:35;4.68;;;1.95;;
45328;SDS011;72636;48.160;11.428;2024-03-23T15:05:05;6.45;;;1.85;;
45328;SDS011;72636;48.160;11.428;2024-03-23T15:07:35;7.93;;;2.63;;
45328;SDS011;72636;48.160;11.428;2024-03-23T15:10:03;3.97;;;1.83;;
45328;SDS011;72636;48.160;11.428;2024-03-23T15:12:30;6.68;;;2.08;;
45328;SDS011;72636;48.160;11.428;2024-03-23T15:14:58;2.78;;;2.10;;
45328;SDS011;72636;48.160;11.428;2024-03-23T15:17:25;7.55;;;2.05;;
45328;SDS011;72636;48.160;11.428;2024-03-23T15:19:50;5.05;;;2.22;;
45328;SDS011;72636;48.160;11.428;2024-03-23T15:22:18;5.60;;;1.77;;
45328;SDS011;72636;48.160;11.428;2024-03-23T15:24:43;5.27;;;2.40;;
45328;SDS011;72636;48.160;11.428;2024-03-23T15:27:09;4.65;;;2.03;;
45328;SDS011;72636;48.160;11.428;2024-03-23T15:29:35;4.37;;;1.90;;
45328;SDS011;72636;48.160;11.428;2024-03-23T15:32:01;5.80;;;2.42;;
45328;SDS011;72636;48.160;11.428;2024-03-23T15:34:28;4.55;;;2.10;;
45328;SDS011;72636;48.160;11.428;2024-03-23T15:39:20;3.85;;;2.40;;
45328;SDS011;72636;48.160;11.428;2024-03-23T15:41:47;7.55;;;2.13;;
45328;SDS011;72636;48.160;11.428;2024-03-23T15:44:13;8.15;;;2.60;;
45328;SDS011;72636;48.160;11.428;2024-03-23T15:46:39;5.57;;;2.38;;
45328;SDS011;72636;48.160;11.428;2024-03-23T15:49:05;8.90;;;2.40;;
45328;SDS011;72636;48.160;11.428;2024-03-23T15:51:31;6.28;;;2.50;;
45328;SDS011;72636;48.160;11.428;2024-03-23T15:54:02;8.48;;;2.67;;
45328;SDS011;72636;48.160;11.428;2024-03-23T15:56:31;7.60;;;2.30;;
45328;SDS011;72636;48.160;11.428;2024-03-23T15:58:57;7.03;;;2.33;;
45328;SDS011;72636;48.160;11.428;2024-03-23T16:01:30;6.40;;;2.72;;
45328;SDS011;72636;48.160;11.428;2024-03-23T16:03:59;5.15;;;2.45;;
45328;SDS011;72636;48.160;11.428;2024-03-23T16:06:25;8.07;;;2.50;;
45328;SDS011;72636;48.160;11.428;2024-03-23T16:08:51;7.10;;;2.87;;
45328;SDS011;72636;48.160;11.428;2024-03-23T16:11:17;5.68;;;2.33;;